sensor_id;sensor_type;location;lat;lon;timestamp;pressure;altitude;pressure_sealevel;temperature;humidity
75425;BME280;64007;50.632;13.700;2023-08-01T00:00:50;96985.53;;;16.65;100.00
75425;BME280;64007;50.632;13.700;2023-08-01T00:03:26;96976.50;;;16.66;100.00
75425;BME280;64007;50.632;13.700;2023-08-01T00:05:51;96975.47;;;16.67;100.00
75425;BME280;64007;50.632;13.700;2023-08-01T00:08:17;96964.63;;;16.60;100.00
75425;BME280;64007;50.632;13.700;2023-08-01T00:10:43;96959.19;;;16.54;100.00
75425;BME280;64007;50.632;13.700;2023-08-01T00:13:08;96959.56;;;16.51;100.00
75425;BME280;64007;50.632;13.700;2023-08-01T00:15:35;96955.03;;;16.51;100.00
75425;BME280;64007;50.632;13.700;2023-08-01T00:18:00;96966.59;;;16.52;100.00
75425;BME280;64007;50.632;13.700;2023-08-01T00:20:26;96957.91;;;16.50;100.00
75425;BME280;64007;50.632;13.700;2023-08-01T00:22:51;96949.59;;;16.45;100.00
75425;BME280;64007;50.632;13.700;2023-08-01T00:25:18;96945.25;;;16.44;100.00
75425;BME280;64007;50.632;13.700;2023-08-01T00:27:43;96941.34;;;16.46;100.00
75425;BME280;64007;50.632;13.700;2023-08-01T00:30:09;96938.47;;;16.48;100.00
75425;BME280;64007;50.632;13.700;2023-08-01T00:32:36;96939.13;;;16.50;100.00
75425;BME280;64007;50.632;13.700;2023-08-01T00:35:02;96927.75;;;16.48;100.00
75425;BME280;64007;50.632;13.700;2023-08-01T00:37:28;96924.03;;;16.49;100.00
75425;BME280;64007;50.632;13.700;2023-08-01T00:39:54;96923.03;;;16.50;100.00
75425;BME280;64007;50.632;13.700;2023-08-01T00:42:19;96923.22;;;16.48;100.00
75425;BME280;64007;50.632;13.700;2023-08-01T00:44:45;96912.41;;;16.42;100.00
75425;BME280;64007;50.632;13.700;2023-08-01T00:47:13;96913.75;;;16.38;100.00
75425;BME280;64007;50.632;13.700;2023-08-01T00:49:39;96906.09;;;16.35;100.00
75425;BME280;64007;50.632;13.700;2023-08-01T00:52:05;96898.03;;;16.35;100.00
75425;BME280;64007;50.632;13.700;2023-08-01T00:54:32;96887.31;;;16.35;100.00
75425;BME280;64007;50.632;13.700;2023-08-01T00:57:05;96882.22;;;16.40;100.00
75425;BME280;64007;50.632;13.700;2023-08-01T00:59:31;96884.63;;;16.35;100.00
75425;BME280;64007;50.632;13.700;2023-08-01T01:01:57;96875.94;;;16.33;100.00
75425;BME280;64007;50.632;13.700;2023-08-01T01:04:24;96870.66;;;16.39;100.00
75425;BME280;64007;50.632;13.700;2023-08-01T01:07:05;96884.25;;;16.38;100.00
75425;BME280;64007;50.632;13.700;2023-08-01T01:09:32;96869.81;;;16.39;100.00
75425;BME280;64007;50.632;13.700;2023-08-01T01:12:00;96859.66;;;16.34;100.00
75425;BME280;64007;50.632;13.700;2023-08-01T01:14:27;96851.16;;;16.30;100.00
75425;BME280;64007;50.632;13.700;2023-08-01T01:16:53;96845.78;;;16.30;100.00
75425;BME280;64007;50.632;13.700;2023-08-01T01:19:19;96840.81;;;16.27;100.00
75425;BME280;64007;50.632;13.700;2023-08-01T01:21:45;96836.66;;;16.25;100.00
75425;BME280;64007;50.632;13.700;2023-08-01T01:24:13;96833.78;;;16.26;100.00
75425;BME280;64007;50.632;13.700;2023-08-01T01:26:43;96842.84;;;16.25;100.00
75425;BME280;64007;50.632;13.700;2023-08-01T01:29:09;96831.28;;;16.25;100.00
75425;BME280;64007;50.632;13.700;2023-08-01T01:31:36;96829.44;;;16.25;100.00
75425;BME280;64007;50.632;13.700;2023-08-01T01:34:03;96830.44;;;16.24;100.00
75425;BME280;64007;50.632;13.700;2023-08-01T01:36:29;96828.41;;;16.26;100.00
75425;BME280;64007;50.632;13.700;2023-08-01T01:38:55;96823.44;;;16.23;100.00
75425;BME280;64007;50.632;13.700;2023-08-01T01:41:20;96825.09;;;16.24;100.00
75425;BME280;64007;50.632;13.700;2023-08-01T01:43:48;96820.56;;;16.25;100.00
75425;BME280;64007;50.632;13.700;2023-08-01T01:46:13;96815.00;;;16.26;100.00
75425;BME280;64007;50.632;13.700;2023-08-01T01:48:40;96815.63;;;16.28;100.00
75425;BME280;64007;50.632;13.700;2023-08-01T01:51:07;96815.63;;;16.28;100.00
75425;BME280;64007;50.632;13.700;2023-08-01T01:53:33;96807.97;;;16.25;100.00
75425;BME280;64007;50.632;13.700;2023-08-01T01:55:59;96809.81;;;16.25;100.00
75425;BME280;64007;50.632;13.700;2023-08-01T01:58:25;96801.97;;;16.23;100.00
75425;BME280;64007;50.632;13.700;2023-08-01T02:00:50;96797.63;;;16.22;100.00
75425;BME280;64007;50.632;13.700;2023-08-01T02:03:16;96806.31;;;16.24;100.00
75425;BME280;64007;50.632;13.700;2023-08-01T02:05:42;96802.59;;;16.25;100.00
75425;BME280;64007;50.632;13.700;2023-08-01T02:08:08;96798.91;;;16.26;100.00
75425;BME280;64007;50.632;13.700;2023-08-01T02:10:33;96801.59;;;16.26;100.00
75425;BME280;64007;50.632;13.700;2023-08-01T02:12:59;96800.75;;;16.26;100.00
75425;BME280;64007;50.632;13.700;2023-08-01T02:15:25;96796.22;;;16.26;100.00
75425;BME280;64007;50.632;13.700;2023-08-01T02:17:50;96800.75;;;16.26;100.00
75425;BME280;64007;50.632;13.700;2023-08-01T02:20:16;96791.69;;;16.27;100.00
75425;BME280;64007;50.632;13.700;2023-08-01T02:22:42;96792.53;;;16.27;100.00
75425;BME280;64007;50.632;13.700;2023-08-01T02:25:08;96787.16;;;16.27;100.00
75425;BME280;64007;50.632;13.700;2023-08-01T02:27:34;96786.72;;;16.24;100.00
75425;BME280;64007;50.632;13.700;2023-08-01T02:29:59;96773.47;;;16.22;100.00
75425;BME280;64007;50.632;13.700;2023-08-01T02:32:25;96783.84;;;16.25;100.00
75425;BME280;64007;50.632;13.700;2023-08-01T02:34:50;96772.66;;;16.22;100.00
75425;BME280;64007;50.632;13.700;2023-08-01T02:37:16;96776.16;;;16.22;100.00
75425;BME280;64007;50.632;13.700;2023-08-01T02:39:42;96770.81;;;16.22;100.00
75425;BME280;64007;50.632;13.700;2023-08-01T02:42:08;96767.09;;;16.23;100.00
75425;BME280;64007;50.632;13.700;2023-08-01T02:44:33;96770.63;;;16.24;100.00
75425;BME280;64007;50.632;13.700;2023-08-01T02:47:00;96762.50;;;16.17;100.00
75425;BME280;64007;50.632;13.700;2023-08-01T02:49:25;96757.97;;;16.18;100.00
75425;BME280;64007;50.632;13.700;2023-08-01T02:51:51;96763.13;;;16.19;100.00
75425;BME280;64007;50.632;13.700;2023-08-01T02:54:17;96768.50;;;16.19;100.00
75425;BME280;64007;50.632;13.700;2023-08-01T02:56:42;96756.13;;;16.18;100.00
75425;BME280;64007;50.632;13.700;2023-08-01T02:59:08;96757.59;;;16.21;100.00
75425;BME280;64007;50.632;13.700;2023-08-01T03:01:35;96752.41;;;16.19;100.00
75425;BME280;64007;50.632;13.700;2023-08-01T03:04:05;96754.50;;;16.24;100.00
75425;BME280;64007;50.632;13.700;2023-08-01T03:06:32;96745.38;;;16.18;100.00
75425;BME280;64007;50.632;13.700;2023-08-01T03:08:58;96731.72;;;16.13;100.00
75425;BME280;64007;50.632;13.700;2023-08-01T03:11:24;96731.72;;;16.13;100.00
75425;BME280;64007;50.632;13.700;2023-08-01T03:13:50;96731.72;;;16.13;100.00
75425;BME280;64007;50.632;13.700;2023-08-01T03:16:17;96731.34;;;16.16;100.00
75425;BME280;64007;50.632;13.700;2023-08-01T03:18:43;96735.28;;;16.20;100.00
75425;BME280;64007;50.632;13.700;2023-08-01T03:21:09;96731.78;;;16.20;100.00
75425;BME280;64007;50.632;13.700;2023-08-01T03:23:35;96727.25;;;16.20;100.00
75425;BME280;64007;50.632;13.700;2023-08-01T03:26:01;96725.59;;;16.19;100.00
75425;BME280;64007;50.632;13.700;2023-08-01T03:28:26;96722.91;;;16.19;100.00
75425;BME280;64007;50.632;13.700;2023-08-01T03:30:52;96729.28;;;16.18;100.00
75425;BME280;64007;50.632;13.700;2023-08-01T03:33:22;96710.31;;;16.20;100.00
75425;BME280;64007;50.632;13.700;2023-08-01T03:35:48;96714.66;;;16.21;100.00
75425;BME280;64007;50.632;13.700;2023-08-01T03:38:15;96716.72;;;16.19;100.00
75425;BME280;64007;50.632;13.700;2023-08-01T03:40:41;96713.59;;;16.15;100.00
75425;BME280;64007;50.632;13.700;2023-08-01T03:43:06;96710.72;;;16.17;100.00
75425;BME280;64007;50.632;13.700;2023-08-01T03:45:33;96706.19;;;16.17;100.00
75425;BME280;64007;50.632;13.700;2023-08-01T03:47:58;96707.47;;;16.21;100.00
75425;BME280;64007;50.632;13.700;2023-08-01T03:50:25;96695.06;;;16.20;100.00
75425;BME280;64007;50.632;13.700;2023-08-01T03:52:50;96691.38;;;16.21;100.00
75425;BME280;64007;50.632;13.700;2023-08-01T03:55:17;96689.69;;;16.20;100.00
75425;BME280;64007;50.632;13.700;2023-08-01T03:57:42;96688.03;;;16.19;100.00
75425;BME280;64007;50.632;13.700;2023-08-01T04:00:09;96687.28;;;16.25;100.00
75425;BME280;64007;50.632;13.700;2023-08-01T04:02:44;96684.06;;;16.37;100.00
75425;BME280;64007;50.632;13.700;2023-08-01T04:05:10;96681.91;;;16.25;100.00
75425;BME280;64007;50.632;13.700;2023-08-01T04:07:36;96676.94;;;16.22;100.00
75425;BME280;64007;50.632;13.700;2023-08-01T04:10:03;96681.66;;;16.20;100.00
75425;BME280;64007;50.632;13.700;2023-08-01T04:12:33;96676.03;;;16.15;100.00
75425;BME280;64007;50.632;13.700;2023-08-01T04:14:59;96676.94;;;16.22;100.00
75425;BME280;64007;50.632;13.700;2023-08-01T04:17:25;96671.56;;;16.22;100.00
75425;BME280;64007;50.632;13.700;2023-08-01T04:19:51;96668.75;;;16.30;100.00
75425;BME280;64007;50.632;13.700;2023-08-01T04:22:17;96663.13;;;16.25;100.00
75425;BME280;64007;50.632;13.700;2023-08-01T04:24:42;96655.41;;;16.16;100.00
75425;BME280;64007;50.632;13.700;2023-08-01T04:27:08;96653.31;;;16.11;100.00
75425;BME280;64007;50.632;13.700;2023-08-01T04:29:34;96645.00;;;16.06;100.00
75425;BME280;64007;50.632;13.700;2023-08-01T04:32:00;96642.19;;;16.14;100.00
75425;BME280;64007;50.632;13.700;2023-08-01T04:34:25;96640.47;;;16.07;100.00
75425;BME280;64007;50.632;13.700;2023-08-01T04:36:51;96634.50;;;16.05;100.00
75425;BME280;64007;50.632;13.700;2023-08-01T04:39:17;96633.53;;;16.12;100.00
75425;BME280;64007;50.632;13.700;2023-08-01T04:41:43;96626.94;;;16.15;100.00
75425;BME280;64007;50.632;13.700;2023-08-01T04:44:08;96624.00;;;16.10;100.00
75425;BME280;64007;50.632;13.700;2023-08-01T04:46:34;96621.00;;;16.19;100.00
75425;BME280;64007;50.632;13.700;2023-08-01T04:49:00;96615.56;;;16.13;100.00
75425;BME280;64007;50.632;13.700;2023-08-01T04:51:26;96612.44;;;16.09;100.00
75425;BME280;64007;50.632;13.700;2023-08-01T04:53:51;96611.00;;;16.07;100.00
75425;BME280;64007;50.632;13.700;2023-08-01T04:56:17;96595.72;;;16.07;100.00
75425;BME280;64007;50.632;13.700;2023-08-01T04:58:43;96600.72;;;16.10;100.00
75425;BME280;64007;50.632;13.700;2023-08-01T05:01:08;96600.06;;;16.08;100.00
75425;BME280;64007;50.632;13.700;2023-08-01T05:03:34;96591.25;;;16.14;100.00
75425;BME280;64007;50.632;13.700;2023-08-01T05:06:00;96595.19;;;16.18;100.00
75425;BME280;64007;50.632;13.700;2023-08-01T05:08:26;96585.50;;;16.17;100.00
75425;BME280;64007;50.632;13.700;2023-08-01T05:10:51;96581.66;;;16.26;100.00
75425;BME280;64007;50.632;13.700;2023-08-01T05:13:18;96582.03;;;16.23;100.00
75425;BME280;64007;50.632;13.700;2023-08-01T05:15:45;96575.00;;;16.22;100.00
75425;BME280;64007;50.632;13.700;2023-08-01T05:18:15;96573.22;;;16.29;100.00
75425;BME280;64007;50.632;13.700;2023-08-01T05:20:40;96570.44;;;16.16;100.00
75425;BME280;64007;50.632;13.700;2023-08-01T05:23:06;96571.31;;;16.23;100.00
75425;BME280;64007;50.632;13.700;2023-08-01T05:25:32;96566.09;;;16.15;100.00
75425;BME280;64007;50.632;13.700;2023-08-01T05:27:57;96564.25;;;16.16;100.00
75425;BME280;64007;50.632;13.700;2023-08-01T05:30:24;96557.03;;;16.16;100.00
75425;BME280;64007;50.632;13.700;2023-08-01T05:32:50;96552.28;;;16.18;100.00
75425;BME280;64007;50.632;13.700;2023-08-01T05:35:16;96555.59;;;16.20;100.00
75425;BME280;64007;50.632;13.700;2023-08-01T05:37:42;96553.13;;;16.19;100.00
75425;BME280;64007;50.632;13.700;2023-08-01T05:40:08;96552.72;;;16.22;100.00
75425;BME280;64007;50.632;13.700;2023-08-01T05:42:34;96550.63;;;16.17;100.00
75425;BME280;64007;50.632;13.700;2023-08-01T05:45:00;96550.00;;;16.15;100.00
75425;BME280;64007;50.632;13.700;2023-08-01T05:47:30;96544.00;;;16.13;100.00
75425;BME280;64007;50.632;13.700;2023-08-01T05:49:56;96537.84;;;16.19;100.00
75425;BME280;64007;50.632;13.700;2023-08-01T05:52:22;96529.56;;;16.14;100.00
75425;BME280;64007;50.632;13.700;2023-08-01T05:54:48;96527.13;;;16.19;100.00
75425;BME280;64007;50.632;13.700;2023-08-01T05:57:14;96520.09;;;16.18;100.00
75425;BME280;64007;50.632;13.700;2023-08-01T05:59:39;96518.06;;;16.20;100.00
75425;BME280;64007;50.632;13.700;2023-08-01T06:02:06;96513.97;;;16.24;100.00
75425;BME280;64007;50.632;13.700;2023-08-01T06:04:31;96520.97;;;16.25;100.00
75425;BME280;64007;50.632;13.700;2023-08-01T06:06:57;96521.38;;;16.22;100.00
75425;BME280;64007;50.632;13.700;2023-08-01T06:09:24;96520.97;;;16.25;100.00
75425;BME280;64007;50.632;13.700;2023-08-01T06:11:50;96520.59;;;16.28;100.00
75425;BME280;64007;50.632;13.700;2023-08-01T06:14:17;96518.69;;;16.22;100.00
75425;BME280;64007;50.632;13.700;2023-08-01T06:16:43;96519.31;;;16.24;100.00
75425;BME280;64007;50.632;13.700;2023-08-01T06:19:09;96512.72;;;16.27;100.00
75425;BME280;64007;50.632;13.700;2023-08-01T06:21:35;96512.34;;;16.30;100.00
75425;BME280;64007;50.632;13.700;2023-08-01T06:24:00;96518.97;;;16.34;100.00
75425;BME280;64007;50.632;13.700;2023-08-01T06:26:27;96524.00;;;16.44;100.00
75425;BME280;64007;50.632;13.700;2023-08-01T06:28:53;96513.63;;;16.41;100.00
75425;BME280;64007;50.632;13.700;2023-08-01T06:31:20;96512.25;;;16.45;100.00
75425;BME280;64007;50.632;13.700;2023-08-01T06:33:45;96514.94;;;16.45;100.00
75425;BME280;64007;50.632;13.700;2023-08-01T06:36:11;96518.25;;;16.47;100.00
75425;BME280;64007;50.632;13.700;2023-08-01T06:38:38;96514.16;;;16.57;100.00
75425;BME280;64007;50.632;13.700;2023-08-01T06:41:04;96522.81;;;16.53;100.00
75425;BME280;64007;50.632;13.700;2023-08-01T06:43:29;96519.09;;;16.54;100.00
75425;BME280;64007;50.632;13.700;2023-08-01T06:45:55;96514.59;;;16.61;100.00
75425;BME280;64007;50.632;13.700;2023-08-01T06:48:21;96509.66;;;16.65;100.00
75425;BME280;64007;50.632;13.700;2023-08-01T06:50:47;96503.00;;;16.54;100.00
75425;BME280;64007;50.632;13.700;2023-08-01T06:53:12;96508.38;;;16.54;100.00
75425;BME280;64007;50.632;13.700;2023-08-01T06:55:38;96494.75;;;16.55;100.00
75425;BME280;64007;50.632;13.700;2023-08-01T06:58:05;96496.94;;;16.73;100.00
75425;BME280;64007;50.632;13.700;2023-08-01T07:00:31;96494.84;;;16.69;100.00
75425;BME280;64007;50.632;13.700;2023-08-01T07:02:57;96496.50;;;16.70;100.00
75425;BME280;64007;50.632;13.700;2023-08-01T07:05:23;96488.25;;;16.71;100.00
75425;BME280;64007;50.632;13.700;2023-08-01T07:07:48;96485.34;;;16.66;100.00
75425;BME280;64007;50.632;13.700;2023-08-01T07:10:14;96486.19;;;16.73;100.00
75425;BME280;64007;50.632;13.700;2023-08-01T07:12:40;96495.03;;;16.67;100.00
75425;BME280;64007;50.632;13.700;2023-08-01T07:15:06;96490.72;;;16.66;100.00
75425;BME280;64007;50.632;13.700;2023-08-01T07:17:33;96495.88;;;16.68;100.00
75425;BME280;64007;50.632;13.700;2023-08-01T07:19:58;96501.03;;;16.69;100.00
75425;BME280;64007;50.632;13.700;2023-08-01T07:22:24;96499.84;;;16.78;100.00
75425;BME280;64007;50.632;13.700;2023-08-01T07:24:54;96504.97;;;16.73;100.00
75425;BME280;64007;50.632;13.700;2023-08-01T07:27:20;96503.16;;;16.80;100.00
75425;BME280;64007;50.632;13.700;2023-08-01T07:29:46;96501.50;;;16.79;100.00
75425;BME280;64007;50.632;13.700;2023-08-01T07:32:11;96502.38;;;16.86;100.00
75425;BME280;64007;50.632;13.700;2023-08-01T07:34:37;96495.78;;;16.89;100.00
75425;BME280;64007;50.632;13.700;2023-08-01T07:37:03;96503.63;;;16.90;100.00
75425;BME280;64007;50.632;13.700;2023-08-01T07:39:29;96508.59;;;16.94;100.00
75425;BME280;64007;50.632;13.700;2023-08-01T07:41:55;96507.78;;;17.00;100.00
75425;BME280;64007;50.632;13.700;2023-08-01T07:44:22;96506.16;;;17.05;100.00
75425;BME280;64007;50.632;13.700;2023-08-01T07:46:47;96508.44;;;17.15;100.00
75425;BME280;64007;50.632;13.700;2023-08-01T07:49:13;96506.63;;;17.22;100.00
75425;BME280;64007;50.632;13.700;2023-08-01T07:51:38;96502.44;;;17.13;100.00
75425;BME280;64007;50.632;13.700;2023-08-01T07:54:04;96505.31;;;17.05;100.00
75425;BME280;64007;50.632;13.700;2023-08-01T07:56:30;96506.97;;;17.06;100.00
75425;BME280;64007;50.632;13.700;2023-08-01T07:58:56;96504.06;;;17.01;100.00
75425;BME280;64007;50.632;13.700;2023-08-01T08:01:21;96507.75;;;16.93;100.00
75425;BME280;64007;50.632;13.700;2023-08-01T08:03:48;96504.03;;;16.87;100.00
75425;BME280;64007;50.632;13.700;2023-08-01T08:06:13;96509.41;;;16.87;100.00
75425;BME280;64007;50.632;13.700;2023-08-01T08:08:39;96502.84;;;17.03;100.00
75425;BME280;64007;50.632;13.700;2023-08-01T08:11:05;96499.75;;;17.06;100.00
75425;BME280;64007;50.632;13.700;2023-08-01T08:13:31;96497.09;;;17.13;100.00
75425;BME280;64007;50.632;13.700;2023-08-01T08:15:56;96497.31;;;17.18;100.00
75425;BME280;64007;50.632;13.700;2023-08-01T08:18:23;96502.25;;;17.21;100.00
75425;BME280;64007;50.632;13.700;2023-08-01T08:20:48;96496.53;;;17.31;100.00
75425;BME280;64007;50.632;13.700;2023-08-01T08:23:14;96505.81;;;17.28;100.00
75425;BME280;64007;50.632;13.700;2023-08-01T08:25:43;96505.84;;;17.41;100.00
75425;BME280;64007;50.632;13.700;2023-08-01T08:28:12;96502.53;;;17.46;100.00
75425;BME280;64007;50.632;13.700;2023-08-01T08:30:38;96500.47;;;17.48;100.00
75425;BME280;64007;50.632;13.700;2023-08-01T08:33:04;96509.56;;;17.53;100.00
75425;BME280;64007;50.632;13.700;2023-08-01T08:35:35;96508.34;;;17.56;100.00
75425;BME280;64007;50.632;13.700;2023-08-01T08:38:03;96506.91;;;17.53;100.00
75425;BME280;64007;50.632;13.700;2023-08-01T08:40:32;96513.91;;;17.54;100.00
75425;BME280;64007;50.632;13.700;2023-08-01T08:43:02;96513.91;;;17.54;100.00
75425;BME280;64007;50.632;13.700;2023-08-01T08:45:34;96522.41;;;17.58;100.00
75425;BME280;64007;50.632;13.700;2023-08-01T08:48:02;96505.09;;;17.80;100.00
75425;BME280;64007;50.632;13.700;2023-08-01T08:50:33;96502.63;;;17.92;100.00
75425;BME280;64007;50.632;13.700;2023-08-01T08:52:59;96501.78;;;17.92;100.00
75425;BME280;64007;50.632;13.700;2023-08-01T08:55:25;96495.78;;;17.83;100.00
75425;BME280;64007;50.632;13.700;2023-08-01T08:57:53;96493.50;;;17.93;100.00
75425;BME280;64007;50.632;13.700;2023-08-01T09:00:19;96493.53;;;18.06;100.00
75425;BME280;64007;50.632;13.700;2023-08-01T09:02:45;96494.53;;;18.19;100.00
75425;BME280;64007;50.632;13.700;2023-08-01T09:05:11;96489.13;;;18.32;100.00
75425;BME280;64007;50.632;13.700;2023-08-01T09:07:41;96503.81;;;18.36;100.00
75425;BME280;64007;50.632;13.700;2023-08-01T09:10:08;96500.09;;;18.50;100.00
75425;BME280;64007;50.632;13.700;2023-08-01T09:12:34;96491.34;;;18.61;100.00
75425;BME280;64007;50.632;13.700;2023-08-01T09:15:00;96492.34;;;18.80;100.00
75425;BME280;64007;50.632;13.700;2023-08-01T09:17:26;96498.72;;;18.99;100.00
75425;BME280;64007;50.632;13.700;2023-08-01T09:20:03;96494.47;;;19.16;100.00
75425;BME280;64007;50.632;13.700;2023-08-01T09:22:30;96500.84;;;19.28;100.00
75425;BME280;64007;50.632;13.700;2023-08-01T09:24:55;96500.66;;;19.30;100.00
75425;BME280;64007;50.632;13.700;2023-08-01T09:27:21;96493.47;;;19.55;100.00
75425;BME280;64007;50.632;13.700;2023-08-01T09:29:50;96494.28;;;19.56;100.00
75425;BME280;64007;50.632;13.700;2023-08-01T09:32:16;96496.53;;;19.65;100.00
75425;BME280;64007;50.632;13.700;2023-08-01T09:34:42;96494.66;;;19.66;100.00
75425;BME280;64007;50.632;13.700;2023-08-01T09:37:08;96486.28;;;19.74;100.00
75425;BME280;64007;50.632;13.700;2023-08-01T09:39:34;96484.38;;;19.81;100.00
75425;BME280;64007;50.632;13.700;2023-08-01T09:42:01;96483.31;;;19.82;100.00
75425;BME280;64007;50.632;13.700;2023-08-01T09:44:28;96483.31;;;19.82;100.00
75425;BME280;64007;50.632;13.700;2023-08-01T09:46:58;96484.97;;;19.83;100.00
75425;BME280;64007;50.632;13.700;2023-08-01T09:49:24;96492.56;;;19.68;100.00
75425;BME280;64007;50.632;13.700;2023-08-01T09:51:50;96494.28;;;19.56;100.00
75425;BME280;64007;50.632;13.700;2023-08-01T09:54:17;96494.78;;;19.39;100.00
75425;BME280;64007;50.632;13.700;2023-08-01T09:56:44;96491.72;;;19.29;100.00
75425;BME280;64007;50.632;13.700;2023-08-01T09:59:11;96489.66;;;19.31;100.00
75425;BME280;64007;50.632;13.700;2023-08-01T10:01:40;96474.34;;;19.25;100.00
75425;BME280;64007;50.632;13.700;2023-08-01T10:04:07;96458.59;;;19.22;100.00
75425;BME280;64007;50.632;13.700;2023-08-01T10:06:37;96449.81;;;19.33;100.00
75425;BME280;64007;50.632;13.700;2023-08-01T10:09:03;96445.47;;;19.32;100.00
75425;BME280;64007;50.632;13.700;2023-08-01T10:11:30;96418.66;;;19.44;100.00
75425;BME280;64007;50.632;13.700;2023-08-01T10:14:00;96393.56;;;19.44;100.00
75425;BME280;64007;50.632;13.700;2023-08-01T10:16:28;96367.78;;;19.54;100.00
75425;BME280;64007;50.632;13.700;2023-08-01T10:18:54;96359.25;;;19.82;100.00
75425;BME280;64007;50.632;13.700;2023-08-01T10:21:20;96366.22;;;19.90;100.00
75425;BME280;64007;50.632;13.700;2023-08-01T10:23:47;96368.25;;;19.94;100.00
75425;BME280;64007;50.632;13.700;2023-08-01T10:26:14;96361.81;;;20.14;100.00
75425;BME280;64007;50.632;13.700;2023-08-01T10:28:41;96391.66;;;20.19;100.00
75425;BME280;64007;50.632;13.700;2023-08-01T10:31:16;96420.75;;;20.35;100.00
75425;BME280;64007;50.632;13.700;2023-08-01T10:33:45;96438.16;;;20.21;100.00
75425;BME280;64007;50.632;13.700;2023-08-01T10:36:18;96433.06;;;20.31;100.00
75425;BME280;64007;50.632;13.700;2023-08-01T10:38:52;96434.09;;;20.12;100.00
75425;BME280;64007;50.632;13.700;2023-08-01T10:41:25;96426.00;;;20.12;100.00
75425;BME280;64007;50.632;13.700;2023-08-01T10:43:50;96436.47;;;20.01;100.00
75425;BME280;64007;50.632;13.700;2023-08-01T10:46:17;96430.50;;;20.18;100.00
75425;BME280;64007;50.632;13.700;2023-08-01T10:48:52;96447.44;;;20.07;100.00
75425;BME280;64007;50.632;13.700;2023-08-01T10:51:18;96444.13;;;20.05;100.00
75425;BME280;64007;50.632;13.700;2023-08-01T10:53:44;96434.41;;;20.22;100.00
75425;BME280;64007;50.632;13.700;2023-08-01T10:56:20;96419.69;;;20.43;100.00
75425;BME280;64007;50.632;13.700;2023-08-01T10:58:47;96419.31;;;20.57;100.00
75425;BME280;64007;50.632;13.700;2023-08-01T11:01:13;96428.75;;;20.67;97.91
75425;BME280;64007;50.632;13.700;2023-08-01T11:03:39;96431.72;;;20.77;98.07
75425;BME280;64007;50.632;13.700;2023-08-01T11:06:05;96424.38;;;20.84;94.71
75425;BME280;64007;50.632;13.700;2023-08-01T11:08:37;96430.66;;;20.96;100.00
75425;BME280;64007;50.632;13.700;2023-08-01T11:11:04;96429.28;;;21.05;95.62
75425;BME280;64007;50.632;13.700;2023-08-01T11:13:30;96425.81;;;21.16;96.44
75425;BME280;64007;50.632;13.700;2023-08-01T11:15:57;96420.53;;;21.40;94.66
75425;BME280;64007;50.632;13.700;2023-08-01T11:18:23;96425.00;;;21.46;93.60
75425;BME280;64007;50.632;13.700;2023-08-01T11:20:49;96436.38;;;21.89;89.36
75425;BME280;64007;50.632;13.700;2023-08-01T11:23:14;96426.25;;;21.97;85.70
75425;BME280;64007;50.632;13.700;2023-08-01T11:25:42;96424.44;;;22.09;84.59
75425;BME280;64007;50.632;13.700;2023-08-01T11:28:11;96423.00;;;22.18;83.05
75425;BME280;64007;50.632;13.700;2023-08-01T11:30:38;96420.16;;;22.36;79.78
75425;BME280;64007;50.632;13.700;2023-08-01T11:33:20;96420.88;;;22.20;77.76
75425;BME280;64007;50.632;13.700;2023-08-01T11:35:53;96426.59;;;22.00;79.66
75425;BME280;64007;50.632;13.700;2023-08-01T11:38:26;96429.13;;;21.60;79.85
75425;BME280;64007;50.632;13.700;2023-08-01T11:40:56;96443.53;;;21.31;86.15
75425;BME280;64007;50.632;13.700;2023-08-01T11:43:23;96426.50;;;21.30;85.07
75425;BME280;64007;50.632;13.700;2023-08-01T11:45:53;96422.50;;;21.33;85.20
75425;BME280;64007;50.632;13.700;2023-08-01T11:48:24;96423.31;;;21.75;84.61
75425;BME280;64007;50.632;13.700;2023-08-01T11:50:58;96415.94;;;22.17;82.73
75425;BME280;64007;50.632;13.700;2023-08-01T11:53:24;96425.06;;;22.63;81.59
75425;BME280;64007;50.632;13.700;2023-08-01T11:55:50;96407.38;;;22.72;78.26
75425;BME280;64007;50.632;13.700;2023-08-01T11:58:34;96411.50;;;22.86;74.47
75425;BME280;64007;50.632;13.700;2023-08-01T12:01:11;96414.97;;;22.46;75.05
75425;BME280;64007;50.632;13.700;2023-08-01T12:03:50;96422.94;;;21.95;76.97
75425;BME280;64007;50.632;13.700;2023-08-01T12:06:19;96427.81;;;21.51;79.38
75425;BME280;64007;50.632;13.700;2023-08-01T12:08:46;96426.59;;;21.23;81.65
75425;BME280;64007;50.632;13.700;2023-08-01T12:11:24;96424.63;;;21.12;82.72
75425;BME280;64007;50.632;13.700;2023-08-01T12:14:02;96414.69;;;20.94;82.91
75425;BME280;64007;50.632;13.700;2023-08-01T12:16:29;96424.06;;;20.92;84.65
75425;BME280;64007;50.632;13.700;2023-08-01T12:18:55;96423.88;;;21.05;84.80
75425;BME280;64007;50.632;13.700;2023-08-01T12:21:21;96415.00;;;21.16;83.90
75425;BME280;64007;50.632;13.700;2023-08-01T12:23:47;96401.81;;;21.26;84.32
75425;BME280;64007;50.632;13.700;2023-08-01T12:26:13;96412.28;;;21.35;89.44
75425;BME280;64007;50.632;13.700;2023-08-01T12:28:38;96407.03;;;21.21;84.29
75425;BME280;64007;50.632;13.700;2023-08-01T12:31:04;96415.91;;;21.10;84.63
75425;BME280;64007;50.632;13.700;2023-08-01T12:33:30;96423.88;;;21.05;85.56
75425;BME280;64007;50.632;13.700;2023-08-01T12:35:56;96432.84;;;21.17;85.18
75425;BME280;64007;50.632;13.700;2023-08-01T12:38:22;96427.41;;;21.24;81.85